sensor_id;sensor_type;location;lat;lon;timestamp;temperature;humidity
20732;DHT22;10527;52.124;5.196;2022-11-02T00:01:20;12.80;99.90
20732;DHT22;10527;52.124;5.196;2022-11-02T00:04:14;12.80;99.90
20732;DHT22;10527;52.124;5.196;2022-11-02T00:06:41;12.80;99.90
20732;DHT22;10527;52.124;5.196;2022-11-02T00:09:07;12.80;99.90
20732;DHT22;10527;52.124;5.196;2022-11-02T00:11:34;12.80;99.90
20732;DHT22;10527;52.124;5.196;2022-11-02T00:14:02;12.70;99.90
20732;DHT22;10527;52.124;5.196;2022-11-02T00:16:30;12.70;99.90
20732;DHT22;10527;52.124;5.196;2022-11-02T00:19:00;12.70;99.90
20732;DHT22;10527;52.124;5.196;2022-11-02T00:21:29;12.70;99.90
20732;DHT22;10527;52.124;5.196;2022-11-02T00:23:56;12.70;99.90
20732;DHT22;10527;52.124;5.196;2022-11-02T00:26:25;12.70;99.90
20732;DHT22;10527;52.124;5.196;2022-11-02T00:28:53;12.70;99.90
20732;DHT22;10527;52.124;5.196;2022-11-02T00:31:20;12.70;99.90
20732;DHT22;10527;52.124;5.196;2022-11-02T00:33:47;12.70;99.90
20732;DHT22;10527;52.124;5.196;2022-11-02T00:36:14;12.70;99.90
20732;DHT22;10527;52.124;5.196;2022-11-02T00:38:40;12.70;99.90
20732;DHT22;10527;52.124;5.196;2022-11-02T00:41:07;12.70;99.90
20732;DHT22;10527;52.124;5.196;2022-11-02T00:43:34;12.70;99.90
20732;DHT22;10527;52.124;5.196;2022-11-02T00:46:01;12.70;99.90
20732;DHT22;10527;52.124;5.196;2022-11-02T00:48:28;12.70;99.90
20732;DHT22;10527;52.124;5.196;2022-11-02T00:50:54;12.70;99.90
20732;DHT22;10527;52.124;5.196;2022-11-02T00:53:21;12.70;99.90
20732;DHT22;10527;52.124;5.196;2022-11-02T00:55:49;12.70;99.90
20732;DHT22;10527;52.124;5.196;2022-11-02T00:58:16;12.70;99.90
20732;DHT22;10527;52.124;5.196;2022-11-02T01:00:43;12.70;99.90
20732;DHT22;10527;52.124;5.196;2022-11-02T01:03:10;12.60;99.90
20732;DHT22;10527;52.124;5.196;2022-11-02T01:05:39;12.50;99.90
20732;DHT22;10527;52.124;5.196;2022-11-02T01:08:06;12.30;99.90
20732;DHT22;10527;52.124;5.196;2022-11-02T01:10:33;12.10;99.90
20732;DHT22;10527;52.124;5.196;2022-11-02T01:13:01;12.10;99.90
20732;DHT22;10527;52.124;5.196;2022-11-02T01:15:27;12.10;99.90
20732;DHT22;10527;52.124;5.196;2022-11-02T01:17:54;12.10;99.90
20732;DHT22;10527;52.124;5.196;2022-11-02T01:20:21;12.00;99.90
20732;DHT22;10527;52.124;5.196;2022-11-02T01:22:47;12.00;99.90
20732;DHT22;10527;52.124;5.196;2022-11-02T01:25:14;12.00;99.90
20732;DHT22;10527;52.124;5.196;2022-11-02T01:27:41;11.90;99.90
20732;DHT22;10527;52.124;5.196;2022-11-02T01:30:08;11.80;99.90
20732;DHT22;10527;52.124;5.196;2022-11-02T01:32:36;11.80;99.90
20732;DHT22;10527;52.124;5.196;2022-11-02T01:35:03;11.70;99.90
20732;DHT22;10527;52.124;5.196;2022-11-02T01:37:30;11.60;99.90
20732;DHT22;10527;52.124;5.196;2022-11-02T01:39:56;11.60;99.90
20732;DHT22;10527;52.124;5.196;2022-11-02T01:42:26;11.50;99.90
20732;DHT22;10527;52.124;5.196;2022-11-02T01:44:53;11.50;99.90
20732;DHT22;10527;52.124;5.196;2022-11-02T01:47:27;11.50;99.90
20732;DHT22;10527;52.124;5.196;2022-11-02T01:50:06;11.50;99.90
20732;DHT22;10527;52.124;5.196;2022-11-02T01:52:51;11.40;99.90
20732;DHT22;10527;52.124;5.196;2022-11-02T01:55:22;11.30;99.90
20732;DHT22;10527;52.124;5.196;2022-11-02T01:57:58;11.30;99.90
20732;DHT22;10527;52.124;5.196;2022-11-02T02:00:29;11.30;99.90
20732;DHT22;10527;52.124;5.196;2022-11-02T02:03:16;11.20;99.90
20732;DHT22;10527;52.124;5.196;2022-11-02T02:06:08;11.10;99.90
20732;DHT22;10527;52.124;5.196;2022-11-02T02:08:39;11.20;99.90
20732;DHT22;10527;52.124;5.196;2022-11-02T02:11:24;11.10;99.90
20732;DHT22;10527;52.124;5.196;2022-11-02T02:14:16;11.20;99.90
20732;DHT22;10527;52.124;5.196;2022-11-02T02:29:08;11.10;99.90
20732;DHT22;10527;52.124;5.196;2022-11-02T02:34:28;11.20;99.90
20732;DHT22;10527;52.124;5.196;2022-11-02T02:37:15;11.20;99.90
20732;DHT22;10527;52.124;5.196;2022-11-02T02:45:42;11.40;99.90
20732;DHT22;10527;52.124;5.196;2022-11-02T02:48:24;11.30;99.90
20732;DHT22;10527;52.124;5.196;2022-11-02T02:51:10;11.40;99.90
20732;DHT22;10527;52.124;5.196;2022-11-02T02:53:50;11.50;99.90
20732;DHT22;10527;52.124;5.196;2022-11-02T02:56:24;11.50;99.90
20732;DHT22;10527;52.124;5.196;2022-11-02T02:59:21;11.50;99.90
20732;DHT22;10527;52.124;5.196;2022-11-02T03:01:53;11.50;99.90
20732;DHT22;10527;52.124;5.196;2022-11-02T03:04:23;11.50;99.90
20732;DHT22;10527;52.124;5.196;2022-11-02T03:06:57;11.50;99.90
20732;DHT22;10527;52.124;5.196;2022-11-02T03:10:02;11.60;99.90
20732;DHT22;10527;52.124;5.196;2022-11-02T03:15:26;11.70;99.90
20732;DHT22;10527;52.124;5.196;2022-11-02T03:38:40;11.70;99.90
20732;DHT22;10527;52.124;5.196;2022-11-02T03:41:17;11.60;99.90
20732;DHT22;10527;52.124;5.196;2022-11-02T03:43:47;11.70;99.90
20732;DHT22;10527;52.124;5.196;2022-11-02T03:46:37;11.70;99.90
20732;DHT22;10527;52.124;5.196;2022-11-02T03:49:11;11.70;99.90
20732;DHT22;10527;52.124;5.196;2022-11-02T03:52:02;11.70;99.90
20732;DHT22;10527;52.124;5.196;2022-11-02T03:54:52;11.70;99.90
20732;DHT22;10527;52.124;5.196;2022-11-02T03:57:52;11.70;99.90
20732;DHT22;10527;52.124;5.196;2022-11-02T04:00:24;11.80;99.90
20732;DHT22;10527;52.124;5.196;2022-11-02T04:02:55;11.80;99.90
20732;DHT22;10527;52.124;5.196;2022-11-02T04:05:34;11.80;99.90
20732;DHT22;10527;52.124;5.196;2022-11-02T04:08:03;11.90;99.90
20732;DHT22;10527;52.124;5.196;2022-11-02T04:10:49;11.90;99.90
20732;DHT22;10527;52.124;5.196;2022-11-02T04:13:36;11.80;99.90
20732;DHT22;10527;52.124;5.196;2022-11-02T04:16:38;11.90;99.90
20732;DHT22;10527;52.124;5.196;2022-11-02T04:19:08;11.90;99.90
20732;DHT22;10527;52.124;5.196;2022-11-02T04:21:55;11.90;99.90
20732;DHT22;10527;52.124;5.196;2022-11-02T04:24:41;11.90;99.90
20732;DHT22;10527;52.124;5.196;2022-11-02T04:27:26;11.90;99.90
20732;DHT22;10527;52.124;5.196;2022-11-02T04:29:53;11.90;99.90
20732;DHT22;10527;52.124;5.196;2022-11-02T04:32:19;11.90;99.90
20732;DHT22;10527;52.124;5.196;2022-11-02T04:35:05;11.90;99.90
20732;DHT22;10527;52.124;5.196;2022-11-02T04:37:37;12.00;99.90
20732;DHT22;10527;52.124;5.196;2022-11-02T04:40:27;12.00;99.90
20732;DHT22;10527;52.124;5.196;2022-11-02T04:42:54;12.00;99.90
20732;DHT22;10527;52.124;5.196;2022-11-02T04:45:21;12.00;99.90
20732;DHT22;10527;52.124;5.196;2022-11-02T04:47:47;12.00;99.90
20732;DHT22;10527;52.124;5.196;2022-11-02T04:50:14;12.00;99.90
20732;DHT22;10527;52.124;5.196;2022-11-02T04:52:41;12.00;99.90
20732;DHT22;10527;52.124;5.196;2022-11-02T04:55:08;11.80;99.90
20732;DHT22;10527;52.124;5.196;2022-11-02T04:57:35;11.80;99.90
20732;DHT22;10527;52.124;5.196;2022-11-02T05:00:02;11.80;99.90
20732;DHT22;10527;52.124;5.196;2022-11-02T05:02:30;11.80;99.90
20732;DHT22;10527;52.124;5.196;2022-11-02T05:05:04;11.80;99.90
20732;DHT22;10527;52.124;5.196;2022-11-02T05:07:31;11.70;99.90
20732;DHT22;10527;52.124;5.196;2022-11-02T05:09:58;11.70;99.90
20732;DHT22;10527;52.124;5.196;2022-11-02T05:12:25;11.70;99.90
20732;DHT22;10527;52.124;5.196;2022-11-02T05:14:54;11.70;99.90
20732;DHT22;10527;52.124;5.196;2022-11-02T05:17:21;11.70;99.90
20732;DHT22;10527;52.124;5.196;2022-11-02T05:19:48;11.70;99.90
20732;DHT22;10527;52.124;5.196;2022-11-02T05:22:17;11.70;99.90
20732;DHT22;10527;52.124;5.196;2022-11-02T05:24:44;11.70;99.90
20732;DHT22;10527;52.124;5.196;2022-11-02T05:27:10;11.70;99.90
20732;DHT22;10527;52.124;5.196;2022-11-02T05:29:37;11.70;99.90
20732;DHT22;10527;52.124;5.196;2022-11-02T05:32:04;11.70;99.90
20732;DHT22;10527;52.124;5.196;2022-11-02T05:34:30;11.70;99.90
20732;DHT22;10527;52.124;5.196;2022-11-02T05:36:57;11.60;99.90
20732;DHT22;10527;52.124;5.196;2022-11-02T05:39:24;11.70;99.90
20732;DHT22;10527;52.124;5.196;2022-11-02T05:41:51;11.70;99.90
20732;DHT22;10527;52.124;5.196;2022-11-02T05:44:17;11.70;99.90
20732;DHT22;10527;52.124;5.196;2022-11-02T05:46:44;11.80;99.90
20732;DHT22;10527;52.124;5.196;2022-11-02T05:49:11;11.80;99.90
20732;DHT22;10527;52.124;5.196;2022-11-02T05:51:38;11.70;99.90
20732;DHT22;10527;52.124;5.196;2022-11-02T05:54:04;11.80;99.90
20732;DHT22;10527;52.124;5.196;2022-11-02T05:56:31;11.80;99.90
20732;DHT22;10527;52.124;5.196;2022-11-02T05:58:58;11.70;99.90
20732;DHT22;10527;52.124;5.196;2022-11-02T06:01:24;11.70;99.90
20732;DHT22;10527;52.124;5.196;2022-11-02T06:03:51;11.80;99.90
20732;DHT22;10527;52.124;5.196;2022-11-02T06:06:20;11.70;99.90
20732;DHT22;10527;52.124;5.196;2022-11-02T06:08:47;11.70;99.90
20732;DHT22;10527;52.124;5.196;2022-11-02T06:11:14;11.60;99.90
20732;DHT22;10527;52.124;5.196;2022-11-02T06:13:42;11.60;99.90
20732;DHT22;10527;52.124;5.196;2022-11-02T06:16:11;11.60;99.90
20732;DHT22;10527;52.124;5.196;2022-11-02T06:18:48;11.60;99.90
20732;DHT22;10527;52.124;5.196;2022-11-02T06:21:14;11.60;99.90
20732;DHT22;10527;52.124;5.196;2022-11-02T06:23:41;11.60;99.90
20732;DHT22;10527;52.124;5.196;2022-11-02T06:26:08;11.60;99.90
20732;DHT22;10527;52.124;5.196;2022-11-02T06:28:36;11.60;99.90
20732;DHT22;10527;52.124;5.196;2022-11-02T06:31:03;11.60;99.90
20732;DHT22;10527;52.124;5.196;2022-11-02T06:33:29;11.60;99.90
20732;DHT22;10527;52.124;5.196;2022-11-02T06:35:57;11.50;99.90
20732;DHT22;10527;52.124;5.196;2022-11-02T06:38:23;11.50;99.90
20732;DHT22;10527;52.124;5.196;2022-11-02T06:41:01;11.50;99.90
20732;DHT22;10527;52.124;5.196;2022-11-02T06:43:32;11.50;99.90
20732;DHT22;10527;52.124;5.196;2022-11-02T06:46:02;11.40;99.90
20732;DHT22;10527;52.124;5.196;2022-11-02T06:48:42;11.40;99.90
20732;DHT22;10527;52.124;5.196;2022-11-02T06:51:14;11.40;99.90
20732;DHT22;10527;52.124;5.196;2022-11-02T06:53:41;11.50;99.90
20732;DHT22;10527;52.124;5.196;2022-11-02T06:56:08;11.50;99.90
20732;DHT22;10527;52.124;5.196;2022-11-02T06:58:35;11.50;99.90
20732;DHT22;10527;52.124;5.196;2022-11-02T07:01:05;11.50;99.90
20732;DHT22;10527;52.124;5.196;2022-11-02T07:03:34;11.50;99.90
20732;DHT22;10527;52.124;5.196;2022-11-02T07:06:01;11.50;99.90
20732;DHT22;10527;52.124;5.196;2022-11-02T07:08:28;11.50;99.90
20732;DHT22;10527;52.124;5.196;2022-11-02T07:10:56;11.50;99.90
20732;DHT22;10527;52.124;5.196;2022-11-02T07:13:23;11.50;99.90
20732;DHT22;10527;52.124;5.196;2022-11-02T07:15:52;11.50;99.90
20732;DHT22;10527;52.124;5.196;2022-11-02T07:18:20;11.60;99.90
20732;DHT22;10527;52.124;5.196;2022-11-02T07:20:48;11.70;99.90
20732;DHT22;10527;52.124;5.196;2022-11-02T07:23:15;11.70;99.90
20732;DHT22;10527;52.124;5.196;2022-11-02T07:25:45;11.70;99.90
20732;DHT22;10527;52.124;5.196;2022-11-02T07:28:12;11.70;99.90
20732;DHT22;10527;52.124;5.196;2022-11-02T07:30:38;11.60;99.90
20732;DHT22;10527;52.124;5.196;2022-11-02T07:33:25;11.60;99.90
20732;DHT22;10527;52.124;5.196;2022-11-02T07:35:52;11.70;99.90
20732;DHT22;10527;52.124;5.196;2022-11-02T07:38:19;11.60;99.90
20732;DHT22;10527;52.124;5.196;2022-11-02T07:40:48;11.60;99.90
20732;DHT22;10527;52.124;5.196;2022-11-02T07:43:16;11.60;99.90
20732;DHT22;10527;52.124;5.196;2022-11-02T07:45:42;11.70;99.90
20732;DHT22;10527;52.124;5.196;2022-11-02T07:48:09;11.60;99.90
20732;DHT22;10527;52.124;5.196;2022-11-02T07:50:36;11.70;99.90
20732;DHT22;10527;52.124;5.196;2022-11-02T07:53:03;11.70;99.90
20732;DHT22;10527;52.124;5.196;2022-11-02T07:55:31;11.70;99.90
20732;DHT22;10527;52.124;5.196;2022-11-02T07:58:03;11.70;99.90
20732;DHT22;10527;52.124;5.196;2022-11-02T08:00:35;11.70;99.90
20732;DHT22;10527;52.124;5.196;2022-11-02T08:03:06;11.70;99.90
20732;DHT22;10527;52.124;5.196;2022-11-02T08:05:36;11.70;99.90
20732;DHT22;10527;52.124;5.196;2022-11-02T08:08:21;11.70;99.90
20732;DHT22;10527;52.124;5.196;2022-11-02T08:10:50;11.80;99.90
20732;DHT22;10527;52.124;5.196;2022-11-02T08:13:20;11.80;99.90
20732;DHT22;10527;52.124;5.196;2022-11-02T08:15:58;11.90;99.90
20732;DHT22;10527;52.124;5.196;2022-11-02T08:18:27;11.90;99.90
20732;DHT22;10527;52.124;5.196;2022-11-02T08:20:55;11.90;99.90
20732;DHT22;10527;52.124;5.196;2022-11-02T08:23:24;11.90;99.90
20732;DHT22;10527;52.124;5.196;2022-11-02T08:25:53;12.00;99.90
20732;DHT22;10527;52.124;5.196;2022-11-02T08:28:24;12.00;99.90
20732;DHT22;10527;52.124;5.196;2022-11-02T08:30:52;12.00;99.90
20732;DHT22;10527;52.124;5.196;2022-11-02T08:33:20;12.10;99.90
20732;DHT22;10527;52.124;5.196;2022-11-02T08:35:47;12.00;99.90
20732;DHT22;10527;52.124;5.196;2022-11-02T08:38:15;12.10;99.90
20732;DHT22;10527;52.124;5.196;2022-11-02T08:40:42;12.10;99.90
20732;DHT22;10527;52.124;5.196;2022-11-02T08:43:11;12.20;99.90
20732;DHT22;10527;52.124;5.196;2022-11-02T08:45:41;12.20;99.90
20732;DHT22;10527;52.124;5.196;2022-11-02T08:48:29;12.20;99.90
20732;DHT22;10527;52.124;5.196;2022-11-02T08:50:57;12.20;99.90
20732;DHT22;10527;52.124;5.196;2022-11-02T08:53:24;12.30;99.90
20732;DHT22;10527;52.124;5.196;2022-11-02T08:55:50;12.30;99.90
20732;DHT22;10527;52.124;5.196;2022-11-02T08:58:17;12.30;99.90
20732;DHT22;10527;52.124;5.196;2022-11-02T09:00:44;12.40;99.90
20732;DHT22;10527;52.124;5.196;2022-11-02T09:03:12;12.40;99.90
20732;DHT22;10527;52.124;5.196;2022-11-02T09:05:42;12.40;99.90
20732;DHT22;10527;52.124;5.196;2022-11-02T09:08:15;12.50;99.90
20732;DHT22;10527;52.124;5.196;2022-11-02T09:10:45;12.50;99.90
20732;DHT22;10527;52.124;5.196;2022-11-02T09:13:15;12.50;99.90
20732;DHT22;10527;52.124;5.196;2022-11-02T09:15:49;12.50;99.90
20732;DHT22;10527;52.124;5.196;2022-11-02T09:18:18;12.60;99.90
20732;DHT22;10527;52.124;5.196;2022-11-02T09:20:45;12.70;99.90
20732;DHT22;10527;52.124;5.196;2022-11-02T09:23:18;12.90;99.90
20732;DHT22;10527;52.124;5.196;2022-11-02T09:25:46;13.10;99.90
20732;DHT22;10527;52.124;5.196;2022-11-02T09:28:14;13.20;99.90
20732;DHT22;10527;52.124;5.196;2022-11-02T09:30:41;13.20;99.90
20732;DHT22;10527;52.124;5.196;2022-11-02T09:33:11;13.20;99.90
20732;DHT22;10527;52.124;5.196;2022-11-02T09:35:44;13.10;99.90
20732;DHT22;10527;52.124;5.196;2022-11-02T09:38:14;13.10;99.90
20732;DHT22;10527;52.124;5.196;2022-11-02T09:46:56;13.00;99.90
20732;DHT22;10527;52.124;5.196;2022-11-02T09:49:45;13.00;99.90
20732;DHT22;10527;52.124;5.196;2022-11-02T09:52:34;13.20;99.90
20732;DHT22;10527;52.124;5.196;2022-11-02T09:55:05;13.30;99.90
20732;DHT22;10527;52.124;5.196;2022-11-02T09:57:43;13.40;99.90
20732;DHT22;10527;52.124;5.196;2022-11-02T10:00:19;13.50;99.90
20732;DHT22;10527;52.124;5.196;2022-11-02T10:03:14;13.70;99.90
20732;DHT22;10527;52.124;5.196;2022-11-02T10:08:51;13.80;99.90
20732;DHT22;10527;52.124;5.196;2022-11-02T10:11:54;13.70;99.90
20732;DHT22;10527;52.124;5.196;2022-11-02T10:14:34;13.90;99.90
20732;DHT22;10527;52.124;5.196;2022-11-02T10:17:17;13.90;99.90
20732;DHT22;10527;52.124;5.196;2022-11-02T10:19:56;14.00;99.90
20732;DHT22;10527;52.124;5.196;2022-11-02T10:22:31;14.00;99.90
20732;DHT22;10527;52.124;5.196;2022-11-02T10:25:03;14.00;99.90
20732;DHT22;10527;52.124;5.196;2022-11-02T10:27:43;14.20;99.90
20732;DHT22;10527;52.124;5.196;2022-11-02T10:30:19;14.10;99.90
20732;DHT22;10527;52.124;5.196;2022-11-02T10:32:51;14.00;99.90
20732;DHT22;10527;52.124;5.196;2022-11-02T10:41:45;14.20;99.90
20732;DHT22;10527;52.124;5.196;2022-11-02T10:45:06;14.30;99.90
20732;DHT22;10527;52.124;5.196;2022-11-02T10:47:38;14.30;99.90
20732;DHT22;10527;52.124;5.196;2022-11-02T10:50:22;14.30;99.90
20732;DHT22;10527;52.124;5.196;2022-11-02T10:53:02;14.30;99.90
20732;DHT22;10527;52.124;5.196;2022-11-02T10:58:43;14.40;99.90
20732;DHT22;10527;52.124;5.196;2022-11-02T11:01:15;14.50;99.90
20732;DHT22;10527;52.124;5.196;2022-11-02T11:04:18;14.50;99.90
20732;DHT22;10527;52.124;5.196;2022-11-02T11:06:47;14.50;99.90
20732;DHT22;10527;52.124;5.196;2022-11-02T11:12:02;14.30;99.90
20732;DHT22;10527;52.124;5.196;2022-11-02T11:14:52;14.30;99.90
20732;DHT22;10527;52.124;5.196;2022-11-02T11:17:44;14.20;99.90
20732;DHT22;10527;52.124;5.196;2022-11-02T11:20:36;14.30;99.90
20732;DHT22;10527;52.124;5.196;2022-11-02T11:23:19;14.40;99.90
20732;DHT22;10527;52.124;5.196;2022-11-02T11:28:56;14.40;99.90
20732;DHT22;10527;52.124;5.196;2022-11-02T11:31:23;14.40;99.90
20732;DHT22;10527;52.124;5.196;2022-11-02T11:33:56;14.40;99.90
20732;DHT22;10527;52.124;5.196;2022-11-02T11:36:35;14.50;99.90
20732;DHT22;10527;52.124;5.196;2022-11-02T11:39:06;14.40;99.90
20732;DHT22;10527;52.124;5.196;2022-11-02T11:41:46;14.50;99.90
20732;DHT22;10527;52.124;5.196;2022-11-02T11:44:14;14.40;99.90
20732;DHT22;10527;52.124;5.196;2022-11-02T11:46:47;14.50;99.90
20732;DHT22;10527;52.124;5.196;2022-11-02T11:49:19;14.40;99.90
20732;DHT22;10527;52.124;5.196;2022-11-02T11:52:25;14.50;99.90
20732;DHT22;10527;52.124;5.196;2022-11-02T11:58:32;14.40;99.90
20732;DHT22;10527;52.124;5.196;2022-11-02T12:03:56;14.50;99.90
20732;DHT22;10527;52.124;5.196;2022-11-02T12:07:16;14.40;99.90
20732;DHT22;10527;52.124;5.196;2022-11-02T12:10:13;14.50;99.90
20732;DHT22;10527;52.124;5.196;2022-11-02T12:16:22;14.60;99.90
20732;DHT22;10527;52.124;5.196;2022-11-02T12:22:28;14.50;99.90
20732;DHT22;10527;52.124;5.196;2022-11-02T12:34:58;14.60;99.90
20732;DHT22;10527;52.124;5.196;2022-11-02T12:41:34;14.60;99.90
20732;DHT22;10527;52.124;5.196;2022-11-02T12:44:57;14.50;99.90
20732;DHT22;10527;52.124;5.196;2022-11-02T12:56:49;14.50;99.90
20732;DHT22;10527;52.124;5.196;2022-11-02T12:59:30;14.60;99.90
20732;DHT22;10527;52.124;5.196;2022-11-02T13:02:09;14.70;99.90
20732;DHT22;10527;52.124;5.196;2022-11-02T13:04:50;14.70;99.90
20732;DHT22;10527;52.124;5.196;2022-11-02T13:07:28;14.70;99.90
20732;DHT22;10527;52.124;5.196;2022-11-02T13:10:16;14.80;99.90
20732;DHT22;10527;52.124;5.196;2022-11-02T13:12:56;14.70;99.90
20732;DHT22;10527;52.124;5.196;2022-11-02T13:15:26;14.70;99.90
20732;DHT22;10527;52.124;5.196;2022-11-02T13:18:26;14.70;99.90
20732;DHT22;10527;52.124;5.196;2022-11-02T13:20:58;14.90;99.90
20732;DHT22;10527;52.124;5.196;2022-11-02T13:23:37;14.90;99.90
20732;DHT22;10527;52.124;5.196;2022-11-02T13:26:27;14.90;99.90
20732;DHT22;10527;52.124;5.196;2022-11-02T13:34:57;15.00;99.90
20732;DHT22;10527;52.124;5.196;2022-11-02T13:37:50;15.00;99.90
20732;DHT22;10527;52.124;5.196;2022-11-02T13:40:27;15.00;99.90
20732;DHT22;10527;52.124;5.196;2022-11-02T13:46:27;14.90;99.90
20732;DHT22;10527;52.124;5.196;2022-11-02T13:49:36;14.80;99.90
20732;DHT22;10527;52.124;5.196;2022-11-02T13:52:14;14.70;99.90
20732;DHT22;10527;52.124;5.196;2022-11-02T13:54:49;14.80;99.90
20732;DHT22;10527;52.124;5.196;2022-11-02T13:57:33;14.80;99.90
20732;DHT22;10527;52.124;5.196;2022-11-02T14:00:26;14.90;99.90
20732;DHT22;10527;52.124;5.196;2022-11-02T14:03:24;14.90;99.90
20732;DHT22;10527;52.124;5.196;2022-11-02T14:06:00;14.80;99.90
20732;DHT22;10527;52.124;5.196;2022-11-02T14:08:57;14.80;99.90
20732;DHT22;10527;52.124;5.196;2022-11-02T14:44:29;14.60;99.90
20732;DHT22;10527;52.124;5.196;2022-11-02T14:47:16;14.60;99.90
20732;DHT22;10527;52.124;5.196;2022-11-02T14:52:28;14.60;99.90
20732;DHT22;10527;52.124;5.196;2022-11-02T14:55:06;14.70;99.90
20732;DHT22;10527;52.124;5.196;2022-11-02T15:06:15;14.60;99.90
20732;DHT22;10527;52.124;5.196;2022-11-02T15:08:59;14.50;99.90
20732;DHT22;10527;52.124;5.196;2022-11-02T15:11:49;14.40;99.90
20732;DHT22;10527;52.124;5.196;2022-11-02T15:19:46;14.20;99.90
20732;DHT22;10527;52.124;5.196;2022-11-02T15:22:36;14.20;99.90
20732;DHT22;10527;52.124;5.196;2022-11-02T15:25:34;14.20;99.90
20732;DHT22;10527;52.124;5.196;2022-11-02T15:28:18;14.20;99.90
20732;DHT22;10527;52.124;5.196;2022-11-02T15:30:53;14.10;99.90
20732;DHT22;10527;52.124;5.196;2022-11-02T15:33:33;14.10;99.90
20732;DHT22;10527;52.124;5.196;2022-11-02T15:36:04;14.00;99.90
20732;DHT22;10527;52.124;5.196;2022-11-02T15:38:33;14.00;99.90
20732;DHT22;10527;52.124;5.196;2022-11-02T15:41:20;14.00;99.90
20732;DHT22;10527;52.124;5.196;2022-11-02T15:50:27;13.80;99.90
20732;DHT22;10527;52.124;5.196;2022-11-02T16:02:10;13.70;99.90
20732;DHT22;10527;52.124;5.196;2022-11-02T16:04:46;13.70;99.90
20732;DHT22;10527;52.124;5.196;2022-11-02T16:07:16;13.70;99.90
20732;DHT22;10527;52.124;5.196;2022-11-02T16:09:44;13.70;99.90
20732;DHT22;10527;52.124;5.196;2022-11-02T16:12:22;13.70;99.90
20732;DHT22;10527;52.124;5.196;2022-11-02T16:14:52;13.60;99.90
20732;DHT22;10527;52.124;5.196;2022-11-02T16:17:30;13.60;99.90
20732;DHT22;10527;52.124;5.196;2022-11-02T16:20:25;13.70;99.90
20732;DHT22;10527;52.124;5.196;2022-11-02T16:28:27;13.60;99.90
20732;DHT22;10527;52.124;5.196;2022-11-02T16:31:19;13.50;99.90
20732;DHT22;10527;52.124;5.196;2022-11-02T16:33:57;13.50;99.90
20732;DHT22;10527;52.124;5.196;2022-11-02T16:36:28;13.40;99.90
20732;DHT22;10527;52.124;5.196;2022-11-02T16:41:47;13.30;99.90
20732;DHT22;10527;52.124;5.196;2022-11-02T16:49:55;13.30;99.90
20732;DHT22;10527;52.124;5.196;2022-11-02T16:52:26;13.40;99.90
20732;DHT22;10527;52.124;5.196;2022-11-02T16:54:57;13.30;99.90
20732;DHT22;10527;52.124;5.196;2022-11-02T16:57:43;13.30;99.90
20732;DHT22;10527;52.124;5.196;2022-11-02T17:00:17;13.30;99.90
20732;DHT22;10527;52.124;5.196;2022-11-02T17:02:46;13.20;99.90
20732;DHT22;10527;52.124;5.196;2022-11-02T17:05:24;13.30;99.90
20732;DHT22;10527;52.124;5.196;2022-11-02T17:10:36;13.30;99.90
20732;DHT22;10527;52.124;5.196;2022-11-02T17:13:05;13.30;99.90
20732;DHT22;10527;52.124;5.196;2022-11-02T17:15:49;13.20;99.90
20732;DHT22;10527;52.124;5.196;2022-11-02T17:20:47;13.10;99.90
20732;DHT22;10527;52.124;5.196;2022-11-02T17:23:45;13.10;99.90
20732;DHT22;10527;52.124;5.196;2022-11-02T17:28:56;13.00;99.90
20732;DHT22;10527;52.124;5.196;2022-11-02T17:31:53;12.90;99.90
20732;DHT22;10527;52.124;5.196;2022-11-02T17:34:26;12.90;99.90
20732;DHT22;10527;52.124;5.196;2022-11-02T17:36:54;12.90;99.90
20732;DHT22;10527;52.124;5.196;2022-11-02T17:39:21;13.00;99.90
20732;DHT22;10527;52.124;5.196;2022-11-02T17:41:55;13.00;99.90
20732;DHT22;10527;52.124;5.196;2022-11-02T17:44:43;13.00;99.90
20732;DHT22;10527;52.124;5.196;2022-11-02T17:47:16;12.90;99.90
20732;DHT22;10527;52.124;5.196;2022-11-02T17:49:43;12.90;99.90
20732;DHT22;10527;52.124;5.196;2022-11-02T17:52:12;12.90;99.90
20732;DHT22;10527;52.124;5.196;2022-11-02T17:54:42;12.80;99.90
20732;DHT22;10527;52.124;5.196;2022-11-02T17:57:12;12.80;99.90
20732;DHT22;10527;52.124;5.196;2022-11-02T17:59:40;12.90;99.90
20732;DHT22;10527;52.124;5.196;2022-11-02T18:02:13;12.80;99.90
20732;DHT22;10527;52.124;5.196;2022-11-02T18:04:41;12.90;99.90
20732;DHT22;10527;52.124;5.196;2022-11-02T18:07:09;12.80;99.90
20732;DHT22;10527;52.124;5.196;2022-11-02T18:09:36;12.90;99.90
20732;DHT22;10527;52.124;5.196;2022-11-02T18:12:03;12.80;99.90
20732;DHT22;10527;52.124;5.196;2022-11-02T18:14:29;12.80;99.90
20732;DHT22;10527;52.124;5.196;2022-11-02T18:16:56;12.80;99.90
20732;DHT22;10527;52.124;5.196;2022-11-02T18:19:23;12.80;99.90
20732;DHT22;10527;52.124;5.196;2022-11-02T18:21:50;12.80;99.90
20732;DHT22;10527;52.124;5.196;2022-11-02T18:24:16;12.80;99.90
20732;DHT22;10527;52.124;5.196;2022-11-02T18:26:43;12.80;99.90
20732;DHT22;10527;52.124;5.196;2022-11-02T18:29:12;12.80;99.90
20732;DHT22;10527;52.124;5.196;2022-11-02T18:31:39;12.80;99.90
20732;DHT22;10527;52.124;5.196;2022-11-02T18:34:06;12.70;99.90
20732;DHT22;10527;52.124;5.196;2022-11-02T18:36:36;12.80;99.90
20732;DHT22;10527;52.124;5.196;2022-11-02T18:39:04;12.80;99.90
20732;DHT22;10527;52.124;5.196;2022-11-02T18:41:33;12.70;99.90
20732;DHT22;10527;52.124;5.196;2022-11-02T18:44:04;12.80;99.90
20732;DHT22;10527;52.124;5.196;2022-11-02T18:46:40;12.70;99.90
20732;DHT22;10527;52.124;5.196;2022-11-02T18:49:07;12.70;99.90
20732;DHT22;10527;52.124;5.196;2022-11-02T18:51:34;12.70;99.90
20732;DHT22;10527;52.124;5.196;2022-11-02T18:54:04;12.70;99.90
20732;DHT22;10527;52.124;5.196;2022-11-02T18:56:32;12.70;99.90
20732;DHT22;10527;52.124;5.196;2022-11-02T18:58:59;12.70;99.90
20732;DHT22;10527;52.124;5.196;2022-11-02T19:01:26;12.70;99.90
20732;DHT22;10527;52.124;5.196;2022-11-02T19:03:58;12.70;99.90
20732;DHT22;10527;52.124;5.196;2022-11-02T19:06:28;12.70;99.90
20732;DHT22;10527;52.124;5.196;2022-11-02T19:09:17;12.70;99.90
20732;DHT22;10527;52.124;5.196;2022-11-02T19:14:28;12.60;99.90
20732;DHT22;10527;52.124;5.196;2022-11-02T19:16:58;12.70;99.90
20732;DHT22;10527;52.124;5.196;2022-11-02T19:19:24;12.60;99.90
20732;DHT22;10527;52.124;5.196;2022-11-02T19:21:51;12.60;99.90
20732;DHT22;10527;52.124;5.196;2022-11-02T19:24:19;12.60;99.90
20732;DHT22;10527;52.124;5.196;2022-11-02T19:26:47;12.60;99.90
20732;DHT22;10527;52.124;5.196;2022-11-02T19:29:14;12.60;99.90
20732;DHT22;10527;52.124;5.196;2022-11-02T19:31:42;12.60;99.90
20732;DHT22;10527;52.124;5.196;2022-11-02T19:34:09;12.50;99.90
20732;DHT22;10527;52.124;5.196;2022-11-02T19:36:36;12.60;99.90